sensor_id;sensor_type;location;lat;lon;timestamp;temperature;humidity
5868;DHT22;2960;49.142;7.768;2022-10-16T00:00:45;17.70;98.70
5868;DHT22;2960;49.142;7.768;2022-10-16T00:03:12;17.70;98.70
5868;DHT22;2960;49.142;7.768;2022-10-16T00:05:41;17.80;98.70
5868;DHT22;2960;49.142;7.768;2022-10-16T00:08:10;17.80;98.60
5868;DHT22;2960;49.142;7.768;2022-10-16T00:10:37;17.80;98.60
5868;DHT22;2960;49.142;7.768;2022-10-16T00:13:05;17.80;98.50
5868;DHT22;2960;49.142;7.768;2022-10-16T00:15:35;17.80;98.50
5868;DHT22;2960;49.142;7.768;2022-10-16T00:18:06;17.70;98.50
5868;DHT22;2960;49.142;7.768;2022-10-16T00:20:34;17.70;98.60
5868;DHT22;2960;49.142;7.768;2022-10-16T00:23:02;17.70;98.70
5868;DHT22;2960;49.142;7.768;2022-10-16T00:25:30;17.70;98.70
5868;DHT22;2960;49.142;7.768;2022-10-16T00:27:59;17.70;98.80
5868;DHT22;2960;49.142;7.768;2022-10-16T00:30:26;17.70;98.80
5868;DHT22;2960;49.142;7.768;2022-10-16T00:32:55;17.70;98.90
5868;DHT22;2960;49.142;7.768;2022-10-16T00:35:23;17.70;98.80
5868;DHT22;2960;49.142;7.768;2022-10-16T00:37:50;17.70;98.70
5868;DHT22;2960;49.142;7.768;2022-10-16T00:40:17;17.70;99.00
5868;DHT22;2960;49.142;7.768;2022-10-16T00:42:44;17.70;98.70
5868;DHT22;2960;49.142;7.768;2022-10-16T00:45:11;17.70;98.70
5868;DHT22;2960;49.142;7.768;2022-10-16T00:47:41;17.70;98.80
5868;DHT22;2960;49.142;7.768;2022-10-16T00:50:17;17.70;98.90
5868;DHT22;2960;49.142;7.768;2022-10-16T00:52:58;17.70;98.90
5868;DHT22;2960;49.142;7.768;2022-10-16T00:55:25;17.70;99.00
5868;DHT22;2960;49.142;7.768;2022-10-16T00:57:53;17.70;98.90
5868;DHT22;2960;49.142;7.768;2022-10-16T01:00:23;17.70;98.80
5868;DHT22;2960;49.142;7.768;2022-10-16T01:02:52;17.70;98.80
5868;DHT22;2960;49.142;7.768;2022-10-16T01:05:22;17.70;98.90
5868;DHT22;2960;49.142;7.768;2022-10-16T01:07:57;17.70;99.00
5868;DHT22;2960;49.142;7.768;2022-10-16T01:10:30;17.70;99.00
5868;DHT22;2960;49.142;7.768;2022-10-16T01:13:05;17.70;99.10
5868;DHT22;2960;49.142;7.768;2022-10-16T01:15:35;17.70;99.10
5868;DHT22;2960;49.142;7.768;2022-10-16T01:18:10;17.70;99.10
5868;DHT22;2960;49.142;7.768;2022-10-16T01:20:45;17.70;99.00
5868;DHT22;2960;49.142;7.768;2022-10-16T01:23:21;17.70;99.00
5868;DHT22;2960;49.142;7.768;2022-10-16T01:26:31;17.70;98.90
5868;DHT22;2960;49.142;7.768;2022-10-16T01:29:09;17.70;98.70
5868;DHT22;2960;49.142;7.768;2022-10-16T01:31:44;17.70;98.90
5868;DHT22;2960;49.142;7.768;2022-10-16T01:34:17;17.70;98.90
5868;DHT22;2960;49.142;7.768;2022-10-16T01:36:50;17.70;99.10
5868;DHT22;2960;49.142;7.768;2022-10-16T01:39:21;17.70;99.30
5868;DHT22;2960;49.142;7.768;2022-10-16T01:41:54;17.70;99.00
5868;DHT22;2960;49.142;7.768;2022-10-16T01:44:29;17.60;99.00
5868;DHT22;2960;49.142;7.768;2022-10-16T01:46:58;17.70;98.90
5868;DHT22;2960;49.142;7.768;2022-10-16T01:49:31;17.60;98.90
5868;DHT22;2960;49.142;7.768;2022-10-16T01:52:00;17.60;99.10
5868;DHT22;2960;49.142;7.768;2022-10-16T01:54:37;17.60;99.10
5868;DHT22;2960;49.142;7.768;2022-10-16T01:57:07;17.60;99.10
5868;DHT22;2960;49.142;7.768;2022-10-16T01:59:42;17.60;99.10
5868;DHT22;2960;49.142;7.768;2022-10-16T02:02:10;17.60;99.00
5868;DHT22;2960;49.142;7.768;2022-10-16T02:04:43;17.60;99.10
5868;DHT22;2960;49.142;7.768;2022-10-16T02:07:12;17.60;99.00
5868;DHT22;2960;49.142;7.768;2022-10-16T02:09:39;17.60;99.00
5868;DHT22;2960;49.142;7.768;2022-10-16T02:12:10;17.60;99.10
5868;DHT22;2960;49.142;7.768;2022-10-16T02:14:41;17.60;99.10
5868;DHT22;2960;49.142;7.768;2022-10-16T02:17:14;17.60;99.10
5868;DHT22;2960;49.142;7.768;2022-10-16T02:19:44;17.60;99.10
5868;DHT22;2960;49.142;7.768;2022-10-16T02:22:18;17.60;99.20
5868;DHT22;2960;49.142;7.768;2022-10-16T02:25:06;17.60;99.20
5868;DHT22;2960;49.142;7.768;2022-10-16T02:27:40;17.60;99.20
5868;DHT22;2960;49.142;7.768;2022-10-16T02:30:14;17.60;99.20
5868;DHT22;2960;49.142;7.768;2022-10-16T02:32:48;17.60;99.20
5868;DHT22;2960;49.142;7.768;2022-10-16T02:35:18;17.60;99.30
5868;DHT22;2960;49.142;7.768;2022-10-16T02:37:46;17.60;99.20
5868;DHT22;2960;49.142;7.768;2022-10-16T02:40:15;17.60;99.10
5868;DHT22;2960;49.142;7.768;2022-10-16T02:42:43;17.60;99.10
5868;DHT22;2960;49.142;7.768;2022-10-16T02:45:12;17.60;99.20
5868;DHT22;2960;49.142;7.768;2022-10-16T02:47:39;17.60;99.30
5868;DHT22;2960;49.142;7.768;2022-10-16T02:50:07;17.60;99.40
5868;DHT22;2960;49.142;7.768;2022-10-16T02:52:34;17.60;99.40
5868;DHT22;2960;49.142;7.768;2022-10-16T02:55:01;17.60;99.40
5868;DHT22;2960;49.142;7.768;2022-10-16T02:57:28;17.60;99.40
5868;DHT22;2960;49.142;7.768;2022-10-16T02:59:59;17.60;99.40
5868;DHT22;2960;49.142;7.768;2022-10-16T03:02:28;17.60;99.40
5868;DHT22;2960;49.142;7.768;2022-10-16T03:04:55;17.50;99.40
5868;DHT22;2960;49.142;7.768;2022-10-16T03:07:22;17.60;99.40
5868;DHT22;2960;49.142;7.768;2022-10-16T03:09:49;17.60;99.30
5868;DHT22;2960;49.142;7.768;2022-10-16T03:12:16;17.60;99.20
5868;DHT22;2960;49.142;7.768;2022-10-16T03:14:43;17.60;99.10
5868;DHT22;2960;49.142;7.768;2022-10-16T03:17:10;17.60;99.00
5868;DHT22;2960;49.142;7.768;2022-10-16T03:19:39;17.60;99.10
5868;DHT22;2960;49.142;7.768;2022-10-16T03:22:06;17.60;99.10
5868;DHT22;2960;49.142;7.768;2022-10-16T03:24:34;17.50;99.20
5868;DHT22;2960;49.142;7.768;2022-10-16T03:27:01;17.50;99.30
5868;DHT22;2960;49.142;7.768;2022-10-16T03:29:28;17.50;99.40
5868;DHT22;2960;49.142;7.768;2022-10-16T03:31:55;17.50;99.50
5868;DHT22;2960;49.142;7.768;2022-10-16T03:34:22;17.50;99.50
5868;DHT22;2960;49.142;7.768;2022-10-16T03:36:51;17.50;99.50
5868;DHT22;2960;49.142;7.768;2022-10-16T03:39:18;17.50;99.40
5868;DHT22;2960;49.142;7.768;2022-10-16T03:41:46;17.50;99.40
5868;DHT22;2960;49.142;7.768;2022-10-16T03:44:13;17.50;99.40
5868;DHT22;2960;49.142;7.768;2022-10-16T03:46:40;17.50;99.40
5868;DHT22;2960;49.142;7.768;2022-10-16T03:49:12;17.50;99.40
5868;DHT22;2960;49.142;7.768;2022-10-16T03:51:39;17.50;99.40
5868;DHT22;2960;49.142;7.768;2022-10-16T03:54:09;17.50;99.40
5868;DHT22;2960;49.142;7.768;2022-10-16T03:56:36;17.50;99.40
5868;DHT22;2960;49.142;7.768;2022-10-16T03:59:03;17.40;99.30
5868;DHT22;2960;49.142;7.768;2022-10-16T04:01:30;17.40;99.40
5868;DHT22;2960;49.142;7.768;2022-10-16T04:03:57;17.40;99.40
5868;DHT22;2960;49.142;7.768;2022-10-16T04:06:24;17.40;99.40
5868;DHT22;2960;49.142;7.768;2022-10-16T04:08:51;17.40;99.40
5868;DHT22;2960;49.142;7.768;2022-10-16T04:11:19;17.40;99.40
5868;DHT22;2960;49.142;7.768;2022-10-16T04:13:47;17.40;99.40
5868;DHT22;2960;49.142;7.768;2022-10-16T04:16:14;17.40;99.40
5868;DHT22;2960;49.142;7.768;2022-10-16T04:18:41;17.40;99.40
5868;DHT22;2960;49.142;7.768;2022-10-16T04:21:08;17.40;99.30
5868;DHT22;2960;49.142;7.768;2022-10-16T04:23:35;17.40;99.30
5868;DHT22;2960;49.142;7.768;2022-10-16T04:26:02;17.40;99.20
5868;DHT22;2960;49.142;7.768;2022-10-16T04:28:31;17.40;99.20
5868;DHT22;2960;49.142;7.768;2022-10-16T04:30:58;17.40;99.20
5868;DHT22;2960;49.142;7.768;2022-10-16T04:33:25;17.40;99.20
5868;DHT22;2960;49.142;7.768;2022-10-16T04:35:56;17.40;99.10
5868;DHT22;2960;49.142;7.768;2022-10-16T04:38:24;17.40;99.10
5868;DHT22;2960;49.142;7.768;2022-10-16T04:40:51;17.40;99.20
5868;DHT22;2960;49.142;7.768;2022-10-16T04:43:19;17.30;99.20
5868;DHT22;2960;49.142;7.768;2022-10-16T04:45:48;17.40;99.20
5868;DHT22;2960;49.142;7.768;2022-10-16T04:48:16;17.40;99.10
5868;DHT22;2960;49.142;7.768;2022-10-16T04:50:43;17.40;99.00
5868;DHT22;2960;49.142;7.768;2022-10-16T04:53:10;17.40;99.00
5868;DHT22;2960;49.142;7.768;2022-10-16T04:55:37;17.40;98.90
5868;DHT22;2960;49.142;7.768;2022-10-16T04:58:05;17.40;98.80
5868;DHT22;2960;49.142;7.768;2022-10-16T05:00:32;17.40;98.70
5868;DHT22;2960;49.142;7.768;2022-10-16T05:03:01;17.40;98.70
5868;DHT22;2960;49.142;7.768;2022-10-16T05:05:31;17.40;98.70
5868;DHT22;2960;49.142;7.768;2022-10-16T05:07:58;17.30;98.70
5868;DHT22;2960;49.142;7.768;2022-10-16T05:10:25;17.30;98.80
5868;DHT22;2960;49.142;7.768;2022-10-16T05:12:52;17.30;98.90
5868;DHT22;2960;49.142;7.768;2022-10-16T05:15:20;17.30;99.00
5868;DHT22;2960;49.142;7.768;2022-10-16T05:17:47;17.30;99.10
5868;DHT22;2960;49.142;7.768;2022-10-16T05:20:15;17.20;99.10
5868;DHT22;2960;49.142;7.768;2022-10-16T05:22:42;17.20;99.30
5868;DHT22;2960;49.142;7.768;2022-10-16T05:25:10;17.20;99.30
5868;DHT22;2960;49.142;7.768;2022-10-16T05:27:37;17.20;99.40
5868;DHT22;2960;49.142;7.768;2022-10-16T05:30:06;17.20;99.40
5868;DHT22;2960;49.142;7.768;2022-10-16T05:32:34;17.20;99.20
5868;DHT22;2960;49.142;7.768;2022-10-16T05:35:01;17.20;99.20
5868;DHT22;2960;49.142;7.768;2022-10-16T05:37:29;17.20;99.20
5868;DHT22;2960;49.142;7.768;2022-10-16T05:39:56;17.20;99.20
5868;DHT22;2960;49.142;7.768;2022-10-16T05:42:23;17.20;99.20
5868;DHT22;2960;49.142;7.768;2022-10-16T05:44:50;17.20;99.20
5868;DHT22;2960;49.142;7.768;2022-10-16T05:47:17;17.20;99.10
5868;DHT22;2960;49.142;7.768;2022-10-16T05:49:48;17.20;99.00
5868;DHT22;2960;49.142;7.768;2022-10-16T05:52:15;17.20;98.90
5868;DHT22;2960;49.142;7.768;2022-10-16T05:54:44;17.20;99.00
5868;DHT22;2960;49.142;7.768;2022-10-16T05:57:11;17.30;99.00
5868;DHT22;2960;49.142;7.768;2022-10-16T05:59:38;17.30;98.90
5868;DHT22;2960;49.142;7.768;2022-10-16T06:02:07;17.20;98.90
5868;DHT22;2960;49.142;7.768;2022-10-16T06:04:35;17.20;99.00
5868;DHT22;2960;49.142;7.768;2022-10-16T06:07:02;17.20;99.00
5868;DHT22;2960;49.142;7.768;2022-10-16T06:09:29;17.20;99.10
5868;DHT22;2960;49.142;7.768;2022-10-16T06:11:57;17.20;99.40
5868;DHT22;2960;49.142;7.768;2022-10-16T06:14:24;17.20;98.90
5868;DHT22;2960;49.142;7.768;2022-10-16T06:16:51;17.20;99.00
5868;DHT22;2960;49.142;7.768;2022-10-16T06:19:18;17.20;99.10
5868;DHT22;2960;49.142;7.768;2022-10-16T06:21:48;17.20;99.20
5868;DHT22;2960;49.142;7.768;2022-10-16T06:24:15;17.20;99.30
5868;DHT22;2960;49.142;7.768;2022-10-16T06:26:42;17.20;99.40
5868;DHT22;2960;49.142;7.768;2022-10-16T06:29:10;17.10;99.40
5868;DHT22;2960;49.142;7.768;2022-10-16T06:31:37;17.10;99.50
5868;DHT22;2960;49.142;7.768;2022-10-16T06:34:04;17.10;99.80
5868;DHT22;2960;49.142;7.768;2022-10-16T06:36:35;17.10;99.70
5868;DHT22;2960;49.142;7.768;2022-10-16T06:39:02;17.10;99.70
5868;DHT22;2960;49.142;7.768;2022-10-16T06:41:30;17.10;99.60
5868;DHT22;2960;49.142;7.768;2022-10-16T06:43:57;17.10;99.90
5868;DHT22;2960;49.142;7.768;2022-10-16T06:46:26;17.10;99.50
5868;DHT22;2960;49.142;7.768;2022-10-16T06:48:53;17.20;99.60
5868;DHT22;2960;49.142;7.768;2022-10-16T06:51:22;17.20;99.50
5868;DHT22;2960;49.142;7.768;2022-10-16T06:53:51;17.20;99.40
5868;DHT22;2960;49.142;7.768;2022-10-16T06:56:20;17.20;99.30
5868;DHT22;2960;49.142;7.768;2022-10-16T06:58:49;17.20;99.20
5868;DHT22;2960;49.142;7.768;2022-10-16T07:01:20;17.30;99.20
5868;DHT22;2960;49.142;7.768;2022-10-16T07:03:50;17.30;99.20
5868;DHT22;2960;49.142;7.768;2022-10-16T07:06:19;17.30;99.20
5868;DHT22;2960;49.142;7.768;2022-10-16T07:08:47;17.30;99.20
5868;DHT22;2960;49.142;7.768;2022-10-16T07:11:16;17.30;99.10
5868;DHT22;2960;49.142;7.768;2022-10-16T07:13:48;17.40;99.20
5868;DHT22;2960;49.142;7.768;2022-10-16T07:16:17;17.40;99.40
5868;DHT22;2960;49.142;7.768;2022-10-16T07:18:45;17.40;99.40
5868;DHT22;2960;49.142;7.768;2022-10-16T07:21:17;17.40;99.50
5868;DHT22;2960;49.142;7.768;2022-10-16T07:23:49;17.40;99.50
5868;DHT22;2960;49.142;7.768;2022-10-16T07:26:16;17.50;99.50
5868;DHT22;2960;49.142;7.768;2022-10-16T07:28:44;17.50;99.50
5868;DHT22;2960;49.142;7.768;2022-10-16T07:31:15;17.50;99.50
5868;DHT22;2960;49.142;7.768;2022-10-16T07:33:44;17.60;99.50
5868;DHT22;2960;49.142;7.768;2022-10-16T07:36:14;17.60;99.50
5868;DHT22;2960;49.142;7.768;2022-10-16T07:38:43;17.60;99.40
5868;DHT22;2960;49.142;7.768;2022-10-16T07:41:12;17.70;99.50
5868;DHT22;2960;49.142;7.768;2022-10-16T07:43:45;17.70;99.50
5868;DHT22;2960;49.142;7.768;2022-10-16T07:46:13;17.80;99.50
5868;DHT22;2960;49.142;7.768;2022-10-16T07:48:43;17.80;99.40
5868;DHT22;2960;49.142;7.768;2022-10-16T07:51:16;17.90;99.40
5868;DHT22;2960;49.142;7.768;2022-10-16T07:53:44;17.90;99.40
5868;DHT22;2960;49.142;7.768;2022-10-16T07:56:12;18.00;99.40
5868;DHT22;2960;49.142;7.768;2022-10-16T07:58:40;18.00;99.30
5868;DHT22;2960;49.142;7.768;2022-10-16T08:01:08;18.10;99.30
5868;DHT22;2960;49.142;7.768;2022-10-16T08:03:36;18.20;99.40
5868;DHT22;2960;49.142;7.768;2022-10-16T08:06:04;18.20;99.40
5868;DHT22;2960;49.142;7.768;2022-10-16T08:08:35;18.30;99.60
5868;DHT22;2960;49.142;7.768;2022-10-16T08:11:02;18.50;99.90
5868;DHT22;2960;49.142;7.768;2022-10-16T08:13:29;18.60;99.90
5868;DHT22;2960;49.142;7.768;2022-10-16T08:15:56;18.80;99.90
5868;DHT22;2960;49.142;7.768;2022-10-16T08:18:27;18.90;99.70
5868;DHT22;2960;49.142;7.768;2022-10-16T08:20:58;19.00;99.20
5868;DHT22;2960;49.142;7.768;2022-10-16T08:23:26;19.00;98.90
5868;DHT22;2960;49.142;7.768;2022-10-16T08:25:56;19.00;98.60
5868;DHT22;2960;49.142;7.768;2022-10-16T08:28:30;19.10;98.80
5868;DHT22;2960;49.142;7.768;2022-10-16T08:31:05;19.10;98.30
5868;DHT22;2960;49.142;7.768;2022-10-16T08:33:33;19.20;98.10
5868;DHT22;2960;49.142;7.768;2022-10-16T08:36:02;19.20;98.40
5868;DHT22;2960;49.142;7.768;2022-10-16T08:38:30;19.20;97.90
5868;DHT22;2960;49.142;7.768;2022-10-16T08:41:21;19.20;97.90
5868;DHT22;2960;49.142;7.768;2022-10-16T08:44:12;19.30;97.80
5868;DHT22;2960;49.142;7.768;2022-10-16T08:46:51;19.30;97.80
5868;DHT22;2960;49.142;7.768;2022-10-16T08:49:26;19.30;97.90
5868;DHT22;2960;49.142;7.768;2022-10-16T08:51:55;19.40;98.40
5868;DHT22;2960;49.142;7.768;2022-10-16T08:54:29;19.50;99.20
5868;DHT22;2960;49.142;7.768;2022-10-16T08:57:12;19.70;99.90
5868;DHT22;2960;49.142;7.768;2022-10-16T08:59:41;20.10;99.90
5868;DHT22;2960;49.142;7.768;2022-10-16T09:02:24;20.50;99.90
5868;DHT22;2960;49.142;7.768;2022-10-16T09:05:23;20.90;99.90
5868;DHT22;2960;49.142;7.768;2022-10-16T09:08:04;21.40;99.90
5868;DHT22;2960;49.142;7.768;2022-10-16T09:10:42;21.90;99.90
5868;DHT22;2960;49.142;7.768;2022-10-16T09:13:20;22.40;98.90
5868;DHT22;2960;49.142;7.768;2022-10-16T09:18:35;23.20;94.60
5868;DHT22;2960;49.142;7.768;2022-10-16T09:21:13;23.50;93.50
5868;DHT22;2960;49.142;7.768;2022-10-16T09:23:41;23.60;91.70
5868;DHT22;2960;49.142;7.768;2022-10-16T09:26:12;23.70;91.20
5868;DHT22;2960;49.142;7.768;2022-10-16T09:28:40;23.90;90.90
5868;DHT22;2960;49.142;7.768;2022-10-16T09:31:18;24.10;90.30
5868;DHT22;2960;49.142;7.768;2022-10-16T09:33:51;24.40;90.00
5868;DHT22;2960;49.142;7.768;2022-10-16T09:36:23;24.60;88.20
5868;DHT22;2960;49.142;7.768;2022-10-16T09:39:03;24.70;86.70
5868;DHT22;2960;49.142;7.768;2022-10-16T09:41:34;24.70;85.80
5868;DHT22;2960;49.142;7.768;2022-10-16T09:44:02;24.60;84.80
5868;DHT22;2960;49.142;7.768;2022-10-16T09:46:33;24.50;84.20
5868;DHT22;2960;49.142;7.768;2022-10-16T09:49:04;24.40;84.30
5868;DHT22;2960;49.142;7.768;2022-10-16T09:51:34;24.40;84.40
5868;DHT22;2960;49.142;7.768;2022-10-16T09:54:13;24.40;84.00
5868;DHT22;2960;49.142;7.768;2022-10-16T09:56:42;24.40;84.40
5868;DHT22;2960;49.142;7.768;2022-10-16T09:59:13;24.50;83.50
5868;DHT22;2960;49.142;7.768;2022-10-16T10:01:47;24.50;83.30
5868;DHT22;2960;49.142;7.768;2022-10-16T10:04:18;24.60;83.00
5868;DHT22;2960;49.142;7.768;2022-10-16T10:06:48;24.70;82.20
5868;DHT22;2960;49.142;7.768;2022-10-16T10:09:18;24.70;82.60
5868;DHT22;2960;49.142;7.768;2022-10-16T10:11:52;24.80;81.50
5868;DHT22;2960;49.142;7.768;2022-10-16T10:14:26;24.80;81.00
5868;DHT22;2960;49.142;7.768;2022-10-16T10:17:13;24.80;80.50
5868;DHT22;2960;49.142;7.768;2022-10-16T10:19:47;24.90;80.10
5868;DHT22;2960;49.142;7.768;2022-10-16T10:22:39;24.80;78.70
5868;DHT22;2960;49.142;7.768;2022-10-16T10:25:20;24.80;78.60
5868;DHT22;2960;49.142;7.768;2022-10-16T10:28:21;24.80;78.30
5868;DHT22;2960;49.142;7.768;2022-10-16T10:31:00;24.90;77.80
5868;DHT22;2960;49.142;7.768;2022-10-16T10:33:40;24.80;77.40
5868;DHT22;2960;49.142;7.768;2022-10-16T10:36:21;24.80;77.40
5868;DHT22;2960;49.142;7.768;2022-10-16T10:38:56;24.80;77.10
5868;DHT22;2960;49.142;7.768;2022-10-16T10:45:04;24.60;76.40
5868;DHT22;2960;49.142;7.768;2022-10-16T10:47:47;24.40;76.10
5868;DHT22;2960;49.142;7.768;2022-10-16T10:50:24;24.20;76.00
5868;DHT22;2960;49.142;7.768;2022-10-16T10:53:08;24.10;76.00
5868;DHT22;2960;49.142;7.768;2022-10-16T10:55:43;24.00;76.00
5868;DHT22;2960;49.142;7.768;2022-10-16T11:01:41;23.70;75.80
5868;DHT22;2960;49.142;7.768;2022-10-16T11:04:34;23.50;76.00
5868;DHT22;2960;49.142;7.768;2022-10-16T11:07:16;23.50;76.30
5868;DHT22;2960;49.142;7.768;2022-10-16T11:09:50;23.40;76.50
5868;DHT22;2960;49.142;7.768;2022-10-16T11:12:22;23.30;76.50
5868;DHT22;2960;49.142;7.768;2022-10-16T11:14:57;23.30;76.60
5868;DHT22;2960;49.142;7.768;2022-10-16T11:17:30;23.20;76.30
5868;DHT22;2960;49.142;7.768;2022-10-16T11:20:03;23.20;76.30
5868;DHT22;2960;49.142;7.768;2022-10-16T11:22:34;23.10;76.20
5868;DHT22;2960;49.142;7.768;2022-10-16T11:25:13;23.00;76.40
5868;DHT22;2960;49.142;7.768;2022-10-16T11:27:44;23.00;76.70
5868;DHT22;2960;49.142;7.768;2022-10-16T11:30:18;23.00;76.80
5868;DHT22;2960;49.142;7.768;2022-10-16T11:33:08;23.00;76.80
5868;DHT22;2960;49.142;7.768;2022-10-16T11:35:51;23.00;76.90
5868;DHT22;2960;49.142;7.768;2022-10-16T11:38:26;23.00;77.00
5868;DHT22;2960;49.142;7.768;2022-10-16T11:41:00;22.90;76.90
5868;DHT22;2960;49.142;7.768;2022-10-16T11:43:34;22.90;77.00
5868;DHT22;2960;49.142;7.768;2022-10-16T11:46:09;22.90;76.90
5868;DHT22;2960;49.142;7.768;2022-10-16T11:48:42;22.90;76.80
5868;DHT22;2960;49.142;7.768;2022-10-16T11:51:17;22.90;76.80
5868;DHT22;2960;49.142;7.768;2022-10-16T11:53:53;22.80;76.60
5868;DHT22;2960;49.142;7.768;2022-10-16T11:56:25;22.80;76.50
5868;DHT22;2960;49.142;7.768;2022-10-16T11:58:58;22.70;76.20
5868;DHT22;2960;49.142;7.768;2022-10-16T12:01:31;22.70;76.20
5868;DHT22;2960;49.142;7.768;2022-10-16T12:04:07;22.70;76.20
5868;DHT22;2960;49.142;7.768;2022-10-16T12:06:45;22.70;76.20
5868;DHT22;2960;49.142;7.768;2022-10-16T12:09:20;22.60;76.10
5868;DHT22;2960;49.142;7.768;2022-10-16T12:11:50;22.60;76.10
5868;DHT22;2960;49.142;7.768;2022-10-16T12:14:36;22.60;76.10
5868;DHT22;2960;49.142;7.768;2022-10-16T12:17:24;22.60;75.90
5868;DHT22;2960;49.142;7.768;2022-10-16T12:20:01;22.50;75.70
5868;DHT22;2960;49.142;7.768;2022-10-16T12:22:47;22.50;75.80
5868;DHT22;2960;49.142;7.768;2022-10-16T12:25:21;22.50;75.90
5868;DHT22;2960;49.142;7.768;2022-10-16T12:28:02;22.40;75.90
5868;DHT22;2960;49.142;7.768;2022-10-16T12:30:33;22.40;75.90
5868;DHT22;2960;49.142;7.768;2022-10-16T12:33:04;22.40;75.90
5868;DHT22;2960;49.142;7.768;2022-10-16T12:35:33;22.40;75.90
5868;DHT22;2960;49.142;7.768;2022-10-16T12:38:15;22.40;75.90
5868;DHT22;2960;49.142;7.768;2022-10-16T12:40:45;22.40;75.80
5868;DHT22;2960;49.142;7.768;2022-10-16T12:43:36;22.40;75.80
5868;DHT22;2960;49.142;7.768;2022-10-16T12:46:35;22.40;75.90
5868;DHT22;2960;49.142;7.768;2022-10-16T12:49:14;22.30;75.90
5868;DHT22;2960;49.142;7.768;2022-10-16T12:51:57;22.30;76.10
5868;DHT22;2960;49.142;7.768;2022-10-16T12:54:28;22.20;76.00
5868;DHT22;2960;49.142;7.768;2022-10-16T12:57:09;22.20;76.10
5868;DHT22;2960;49.142;7.768;2022-10-16T12:59:53;22.10;76.10
5868;DHT22;2960;49.142;7.768;2022-10-16T13:02:50;22.10;76.30
5868;DHT22;2960;49.142;7.768;2022-10-16T13:05:30;22.10;76.40
5868;DHT22;2960;49.142;7.768;2022-10-16T13:08:14;22.00;76.50
5868;DHT22;2960;49.142;7.768;2022-10-16T13:10:59;22.00;76.60
5868;DHT22;2960;49.142;7.768;2022-10-16T13:13:57;22.00;76.70
5868;DHT22;2960;49.142;7.768;2022-10-16T13:16:43;22.00;76.80
5868;DHT22;2960;49.142;7.768;2022-10-16T13:19:22;22.00;76.90
5868;DHT22;2960;49.142;7.768;2022-10-16T13:22:00;22.00;77.10
5868;DHT22;2960;49.142;7.768;2022-10-16T13:24:48;21.90;77.20
5868;DHT22;2960;49.142;7.768;2022-10-16T13:27:29;21.90;77.50
5868;DHT22;2960;49.142;7.768;2022-10-16T13:30:11;21.80;77.80
5868;DHT22;2960;49.142;7.768;2022-10-16T13:32:45;21.80;78.20
5868;DHT22;2960;49.142;7.768;2022-10-16T13:35:22;21.80;78.60
5868;DHT22;2960;49.142;7.768;2022-10-16T13:37:50;21.70;78.80
5868;DHT22;2960;49.142;7.768;2022-10-16T13:40:20;21.70;79.10
5868;DHT22;2960;49.142;7.768;2022-10-16T13:42:48;21.70;79.30
5868;DHT22;2960;49.142;7.768;2022-10-16T13:45:20;21.60;79.50
5868;DHT22;2960;49.142;7.768;2022-10-16T13:47:49;21.60;79.90
5868;DHT22;2960;49.142;7.768;2022-10-16T13:50:18;21.60;80.30
5868;DHT22;2960;49.142;7.768;2022-10-16T13:52:45;21.50;80.60
5868;DHT22;2960;49.142;7.768;2022-10-16T13:55:16;21.50;80.90
5868;DHT22;2960;49.142;7.768;2022-10-16T13:57:45;21.50;81.20
5868;DHT22;2960;49.142;7.768;2022-10-16T14:00:20;21.50;81.40
5868;DHT22;2960;49.142;7.768;2022-10-16T14:02:55;21.60;81.60
5868;DHT22;2960;49.142;7.768;2022-10-16T14:05:25;21.70;81.90
5868;DHT22;2960;49.142;7.768;2022-10-16T14:07:53;21.70;81.90
5868;DHT22;2960;49.142;7.768;2022-10-16T14:10:28;21.80;82.10
5868;DHT22;2960;49.142;7.768;2022-10-16T14:13:00;21.80;82.00
5868;DHT22;2960;49.142;7.768;2022-10-16T14:15:30;21.90;81.90
5868;DHT22;2960;49.142;7.768;2022-10-16T14:17:59;22.00;81.60
5868;DHT22;2960;49.142;7.768;2022-10-16T14:20:28;22.00;81.30
5868;DHT22;2960;49.142;7.768;2022-10-16T14:22:59;22.10;81.20
5868;DHT22;2960;49.142;7.768;2022-10-16T14:25:29;22.10;81.00
5868;DHT22;2960;49.142;7.768;2022-10-16T14:27:58;22.10;81.60
5868;DHT22;2960;49.142;7.768;2022-10-16T14:30:28;22.20;80.80
5868;DHT22;2960;49.142;7.768;2022-10-16T14:32:57;22.20;80.70
5868;DHT22;2960;49.142;7.768;2022-10-16T14:35:29;22.20;81.30
5868;DHT22;2960;49.142;7.768;2022-10-16T14:37:59;22.20;80.40
5868;DHT22;2960;49.142;7.768;2022-10-16T14:40:29;22.20;80.30
5868;DHT22;2960;49.142;7.768;2022-10-16T14:42:59;22.20;80.20
5868;DHT22;2960;49.142;7.768;2022-10-16T14:45:30;22.30;80.20
5868;DHT22;2960;49.142;7.768;2022-10-16T14:48:02;22.30;80.10
5868;DHT22;2960;49.142;7.768;2022-10-16T14:50:31;22.30;80.00
5868;DHT22;2960;49.142;7.768;2022-10-16T14:52:58;22.30;79.80
5868;DHT22;2960;49.142;7.768;2022-10-16T14:55:26;22.30;79.70
5868;DHT22;2960;49.142;7.768;2022-10-16T14:57:53;22.30;79.60
5868;DHT22;2960;49.142;7.768;2022-10-16T15:00:22;22.30;79.50
5868;DHT22;2960;49.142;7.768;2022-10-16T15:02:50;22.40;79.50
5868;DHT22;2960;49.142;7.768;2022-10-16T15:05:21;22.30;79.30
5868;DHT22;2960;49.142;7.768;2022-10-16T15:07:49;22.30;79.30
5868;DHT22;2960;49.142;7.768;2022-10-16T15:10:17;22.40;79.40
5868;DHT22;2960;49.142;7.768;2022-10-16T15:12:45;22.30;79.40
5868;DHT22;2960;49.142;7.768;2022-10-16T15:15:33;22.40;79.50
5868;DHT22;2960;49.142;7.768;2022-10-16T15:18:01;22.40;79.50
5868;DHT22;2960;49.142;7.768;2022-10-16T15:20:33;22.40;79.40
5868;DHT22;2960;49.142;7.768;2022-10-16T15:23:02;22.50;79.50
5868;DHT22;2960;49.142;7.768;2022-10-16T15:25:36;22.50;79.30
5868;DHT22;2960;49.142;7.768;2022-10-16T15:28:06;22.50;79.10
5868;DHT22;2960;49.142;7.768;2022-10-16T15:30:37;22.50;79.00
5868;DHT22;2960;49.142;7.768;2022-10-16T15:33:12;22.50;78.90
5868;DHT22;2960;49.142;7.768;2022-10-16T15:35:42;22.50;78.80
5868;DHT22;2960;49.142;7.768;2022-10-16T15:38:12;22.40;78.70
5868;DHT22;2960;49.142;7.768;2022-10-16T15:40:40;22.40;78.90
5868;DHT22;2960;49.142;7.768;2022-10-16T15:43:08;22.30;79.30
5868;DHT22;2960;49.142;7.768;2022-10-16T15:45:36;22.20;79.70
5868;DHT22;2960;49.142;7.768;2022-10-16T15:48:03;22.20;80.00
5868;DHT22;2960;49.142;7.768;2022-10-16T15:50:30;22.10;80.20
5868;DHT22;2960;49.142;7.768;2022-10-16T15:52:59;22.10;80.50
5868;DHT22;2960;49.142;7.768;2022-10-16T15:55:26;22.00;80.70
5868;DHT22;2960;49.142;7.768;2022-10-16T15:57:54;22.00;81.00
5868;DHT22;2960;49.142;7.768;2022-10-16T16:00:21;21.90;81.30
5868;DHT22;2960;49.142;7.768;2022-10-16T16:02:52;21.90;82.30
5868;DHT22;2960;49.142;7.768;2022-10-16T16:05:20;21.80;81.70
5868;DHT22;2960;49.142;7.768;2022-10-16T16:07:49;21.80;81.90
5868;DHT22;2960;49.142;7.768;2022-10-16T16:10:18;21.70;82.00
5868;DHT22;2960;49.142;7.768;2022-10-16T16:12:46;21.60;82.10
5868;DHT22;2960;49.142;7.768;2022-10-16T16:15:17;21.60;82.30
5868;DHT22;2960;49.142;7.768;2022-10-16T16:17:44;21.50;82.60
5868;DHT22;2960;49.142;7.768;2022-10-16T16:20:11;21.40;82.80
5868;DHT22;2960;49.142;7.768;2022-10-16T16:22:39;21.40;83.00
5868;DHT22;2960;49.142;7.768;2022-10-16T16:25:06;21.30;83.10
5868;DHT22;2960;49.142;7.768;2022-10-16T16:27:35;21.20;83.30
5868;DHT22;2960;49.142;7.768;2022-10-16T16:30:04;21.20;83.60
5868;DHT22;2960;49.142;7.768;2022-10-16T16:32:33;21.10;83.60
5868;DHT22;2960;49.142;7.768;2022-10-16T16:35:00;21.10;83.70
5868;DHT22;2960;49.142;7.768;2022-10-16T16:37:28;21.00;83.80
5868;DHT22;2960;49.142;7.768;2022-10-16T16:39:55;20.90;84.00